^^

Meteo Aereoporti Centro-Italia

 

 
LIRZ - Perugia S.Egidio (208 m.)
Dati ricevuti: 24/03/2019 20:50
Sereno
Sereno
 Vento da direzione variabile
Vento: direzione variabile 4 km/h
TEMPERATURA: 13°C
P.to di Rugiada: 5°C
Umidità: 59%
Pressione: 1019 hPa
Condizioni generali: Sereno
Visibilità: oltre 10 km
2019/03/24 19:50 LIRZ 241950Z VRB02KT CAVOK 13/05 Q1019
 
LIPY - Ancona Falconara (12 m.)
Dati ricevuti: 24/03/2019 20:50
Sereno
Sereno
 Vento da S
Vento: S 6 km/h
TEMPERATURA: 11°C
P.to di Rugiada: 5°C
Umidità: 67%
Pressione: 1018 hPa
Condizioni generali: Sereno
Visibilità: oltre 10 km
2019/03/24 19:50 LIPY 241950Z 18003KT CAVOK 11/05 Q1018
 
LIPR - Rimini Miramare (12 m.)
Dati ricevuti: 24/03/2019 20:50
Sereno
Sereno
 Vento da S
Vento: S 9 km/h
TEMPERATURA: 12°C
P.to di Rugiada: 4°C
Umidità: 58%
Pressione: 1017 hPa
Condizioni generali: Sereno
Visibilità: oltre 10 km
2019/03/24 19:50 LIPR 241950Z 18005KT CAVOK 12/04 Q1017
 
LIRF - Roma Fiumicino (2 m.)
Dati ricevuti: 24/03/2019 20:50
Sereno
Sereno
 Vento da W
Vento: W 4 km/h
TEMPERATURA: 12°C
P.to di Rugiada: 12°C
Umidità: 100%
Pressione: 1020 hPa
Condizioni generali: Sereno
Visibilità: oltre 10 km
2019/03/24 19:50 LIRF 241950Z 27002KT CAVOK 12/12 Q1020 NOSIG
 
LIRA - Roma Ciampino (129 m.)
Dati ricevuti: 24/03/2019 20:50
Sereno
Sereno
 Vento da direzione variabile
Vento: direzione variabile 4 km/h
TEMPERATURA: 11°C
P.to di Rugiada: 8°C
Umidità: 82%
Pressione: 1020 hPa
Condizioni generali: Sereno
Visibilità: oltre 10 km
2019/03/24 19:50 LIRA 241950Z VRB02KT CAVOK 11/08 Q1020
 
LIRU - Roma Urbe (17 m.)
Dati ricevuti: 24/03/2019 17:50
Dati non aggiornati
Sereno
Sereno
 Vento da SW
Vento: SW 11 km/h
TEMPERATURA: 17°C
P.to di Rugiada: 6°C
Umidità: 49%
Pressione: 1019 hPa
Condizioni generali: Sereno
Visibilità: oltre 10 km
2019/03/24 16:50 LIRU 241650Z 22006KT CAVOK 17/06 Q1019
 
LIVF - Frontone (570 m.)
Dati ricevuti: 24/03/2019 09:55
Dati non aggiornati
Sereno
Sereno
 Vento da W
Vento: W 6 km/h
TEMPERATURA: 14°C
P.to di Rugiada: -4°C
Umidità: 29%
Pressione: 1021 hPa
Condizioni generali: Sereno
Visibilità: oltre 10 km
2019/03/24 08:55 LIVF 240855Z 28003KT CAVOK 14/M04 Q1021
 
LIRQ - Firenze Peretola (40 m.)
Dati ricevuti: 24/03/2019 20:50
Sereno
Sereno
 Vento da SSW
Vento: SSW 4 km/h
TEMPERATURA: 14°C
P.to di Rugiada: 4°C
Umidità: 51%
Pressione: 1019 hPa
Condizioni generali: Sereno
Visibilità: oltre 10 km
2019/03/24 19:50 LIRQ 241950Z 21002KT CAVOK 14/04 Q1019
 
LIBP - Pescara (10 m.)
Dati ricevuti: 24/03/2019 20:50
Sereno
Sereno
 Vento da SSW
Vento: SSW 6 km/h
TEMPERATURA: 10°C
P.to di Rugiada: 4°C
Umidità: 67%
Pressione: 1019 hPa
Condizioni generali: Sereno
Visibilità: oltre 10 km
2019/03/24 19:50 LIBP 241950Z 21003KT CAVOK 10/04 Q1019
 
LIRV - Viterbo (300 m.)
Dati ricevuti: 24/03/2019 18:55
Dati non aggiornati
Sereno
Sereno
 Vento da direzione variabile
Vento: direzione variabile 0 km/h
TEMPERATURA: 14°C
P.to di Rugiada: 7°C
Umidità: 63%
Pressione: 1019 hPa
Condizioni generali: Sereno
Visibilità: oltre 10 km
2019/03/24 17:55 LIRV 241755Z /////KT CAVOK 14/07 Q1019
 
LIQN - Rieti (389 m.)
Dati ricevuti: 24/03/2019 17:50
Dati non aggiornati
Sereno
Sereno
 Vento da S
Vento: S 11 km/h
TEMPERATURA: 19°C
P.to di Rugiada: 2°C
Umidità: 32%
Pressione: 1018 hPa
Condizioni generali: Sereno
Visibilità: oltre 10 km
2019/03/24 16:50 LIQN 241650Z 19006KT CAVOK 19/02 Q1018
 
LIRG - Guidonia -RM- (88 m.)
Dati ricevuti: 22/03/2019 18:55
Dati non aggiornati
Sereno
Sereno
 Vento da SSE
Vento: SSE 11 km/h
TEMPERATURA: 15°C
P.to di Rugiada: 3°C
Umidità: 45%
Pressione: 1023 hPa
Condizioni generali: Sereno
Visibilità: oltre 10 km
2019/03/22 17:55 LIRG 221755Z 16006KT CAVOK 15/03 Q1023
 
LIRK - Terminillo -RI-(1874 m.)
Dati ricevuti: 24/03/2019 19:55
Dati non aggiornati

 Vento da NW
Vento: NW 19 km/h
TEMPERATURA: 6°C
Raffreddamento da Vento: 3°C
P.to di Rugiada: 0°C
Umidità: 66%
Pressione: 1023 hPa
2019/03/24 18:55 LIRK 241855Z AUTO 32010KT //// 06/M00 Q1023
 
LIPK - Forlì (27 m.)
Dati ricevuti: 22/03/2019 17:50
Dati non aggiornati
Sereno
Sereno
 Vento da direzione variabile
Vento: direzione variabile 2 km/h
TEMPERATURA: 17°C
P.to di Rugiada: -1°C
Umidità: 30%
Pressione: 1036 hPa
Condizioni generali: Sereno
Visibilità: oltre 10 km
2019/03/22 16:50 LIPK 221650Z VRB01KT CAVOK 17/M01 Q1036
 
LIRS - Grosseto (5 m.)
Dati ricevuti: 24/03/2019 20:55
Sereno
Sereno
 Vento da ESE
Vento: ESE 7 km/h
TEMPERATURA: 10°C
Raffreddamento da Vento: 9°C
P.to di Rugiada: 7°C
Umidità: 82%
Pressione: 1019 hPa
Condizioni generali: Sereno
Visibilità: oltre 10 km
2019/03/24 19:55 LIRS 241955Z 12004KT CAVOK 10/07 Q1019
 
LIRP - Pisa S.Giusto (2 m.)
Dati ricevuti: 24/03/2019 20:45
Nebbia a bassa quota, Poco nuvoloso
Nebbia a bassa quota, Poco nuvoloso
 Vento da ENE
Vento: ENE 2 km/h
TEMPERATURA: 10°C
P.to di Rugiada: 10°C
Umidità: 100%
Pressione: 1020 hPa
Condizioni generali: Nebbia a bassa quota
Nuvole: Poco nuvoloso
Visibilità: 8 km
2019/03/24 19:45 LIRP 241945Z 07001KT 8000 MIFG NSC 10/10 Q1020 NOSIG